RAF Ternhill


Codes: EGOE/
Name: RAF Ternhill
City: Ternhill
Country: United Kingdom
Elevation: 272 ft.
Wikipedia:

Photos at RAF Ternhill


   Photos courtesy of SpottingLog. You can add your own sightings and photos by signing up for a free trial today.



No photos found.

Weather at RAF Ternhill


Time (UTC)DescriptionTempratureWindCloud coverageVisibilityPressureHumidity
21-Feb-2024 03:00Light Rain9°C13 mph, S100%10000m1015hPa96%
21-Feb-2024 06:00Light Rain9°C20 mph, S100%10000m1009hPa93%
21-Feb-2024 09:00Light Rain9°C22 mph, S100%10000m1001hPa92%
21-Feb-2024 12:00Light Rain10°C18 mph, S100%10000m997hPa91%
21-Feb-2024 15:00Light Rain12°C16 mph, W100%10000m996hPa89%
21-Feb-2024 18:00Overcast Clouds9°C13 mph, W100%10000m998hPa83%
21-Feb-2024 21:00Overcast Clouds7°C11 mph, SW100%10000m997hPa88%
22-Feb-2024 00:00Overcast Clouds9°C13 mph, SW100%10000m995hPa85%
22-Feb-2024 03:00Light Rain9°C16 mph, S98%10000m989hPa92%
22-Feb-2024 06:00Moderate Rain7°C13 mph, W95%9443m987hPa92%
22-Feb-2024 09:00Light Rain6°C4 mph, S100%10000m982hPa91%
22-Feb-2024 12:00Moderate Rain4°C16 mph, NW100%8957m980hPa92%
22-Feb-2024 15:00Light Rain5°C16 mph, NW100%10000m981hPa76%
22-Feb-2024 18:00Overcast Clouds3°C16 mph, W86%10000m984hPa75%
22-Feb-2024 21:00Few Clouds3°C11 mph, SW15%10000m985hPa77%
23-Feb-2024 00:00Scattered Clouds2°C9 mph, S42%10000m985hPa88%
23-Feb-2024 03:00Light Rain1°C7 mph, SW77%10000m984hPa95%
23-Feb-2024 06:00Broken Clouds3°C13 mph, SW72%10000m985hPa82%
23-Feb-2024 09:00Overcast Clouds4°C11 mph, SW96%10000m986hPa80%
23-Feb-2024 12:00Broken Clouds6°C16 mph, SW77%10000m986hPa63%
23-Feb-2024 15:00Light Rain6°C13 mph, SW100%10000m986hPa67%
23-Feb-2024 18:00Overcast Clouds2°C7 mph, SW87%10000m987hPa84%
23-Feb-2024 21:00Scattered Clouds1°C7 mph, S25%10000m987hPa89%
24-Feb-2024 00:00Scattered Clouds0°C7 mph, S32%10000m987hPa88%
24-Feb-2024 03:00Few Clouds-0°C4 mph, S23%10000m988hPa87%
24-Feb-2024 06:00Broken Clouds0°C4 mph, S60%10000m989hPa86%
24-Feb-2024 09:00Overcast Clouds3°C4 mph, SW98%10000m991hPa79%
24-Feb-2024 12:00Broken Clouds7°C4 mph, W71%10000m993hPa65%
24-Feb-2024 15:00Light Rain7°C7 mph, NW62%10000m994hPa71%
24-Feb-2024 18:00Light Rain3°C2 mph, NW47%10000m996hPa87%
24-Feb-2024 21:00Clear Sky1°C4 mph, SW10%10000m998hPa90%
25-Feb-2024 00:00Few Clouds1°C4 mph, SW11%10000m998hPa91%
25-Feb-2024 03:00Clear Sky0°C4 mph, SW4%10000m998hPa91%
25-Feb-2024 06:00Clear Sky-0°C4 mph, SE6%10000m998hPa92%
25-Feb-2024 09:00Overcast Clouds2°C7 mph, SE94%10000m997hPa85%
25-Feb-2024 12:00Overcast Clouds6°C11 mph, SE97%10000m996hPa76%
25-Feb-2024 15:00Overcast Clouds6°C11 mph, E100%10000m994hPa77%
25-Feb-2024 18:00Overcast Clouds4°C13 mph, E100%10000m993hPa85%
25-Feb-2024 21:00Overcast Clouds4°C16 mph, E100%10000m993hPa87%
26-Feb-2024 00:00Light Rain4°C18 mph, NE100%10000m992hPa89%